createdAt,value
2022-09-20T00:00:52.581Z,99673.66
2022-09-20T00:03:28.185Z,99677.23
2022-09-20T00:06:13.938Z,99675.98
2022-09-20T00:08:57.330Z,99679.86
2022-09-20T00:11:40.356Z,99681.65
2022-09-20T00:14:23.280Z,99682.97
2022-09-20T00:17:06.569Z,99685.52
2022-09-20T00:19:35.890Z,99683.87
2022-09-20T00:22:18.720Z,99686.21
2022-09-20T00:25:01.091Z,99691.41
2022-09-20T00:27:46.029Z,99695.39
2022-09-20T00:30:15.310Z,99696.06
2022-09-20T00:32:58.207Z,99693.61
2022-09-20T00:35:28.343Z,99695.34
2022-09-20T00:37:58.090Z,99691.61
2022-09-20T00:40:27.786Z,99695.48
2022-09-20T00:42:56.945Z,99691.98
2022-09-20T00:45:39.726Z,99692.92
2022-09-20T00:48:30.981Z,99699.89
2022-09-20T00:51:18.271Z,99702.05
2022-09-20T00:54:04.710Z,99695.55
2022-09-20T00:56:47.547Z,99695.29
2022-09-20T00:59:35.769Z,99695.36
2022-09-20T01:02:09.221Z,99693.98
2022-09-20T01:04:41.629Z,99693.78
2022-09-20T01:07:25.047Z,99691.06
2022-09-20T01:10:08.095Z,99693.08
2022-09-20T01:12:54.356Z,99694.16
2022-09-20T01:15:39.973Z,99697.45
2022-09-20T01:18:10.508Z,99697.73
2022-09-20T01:20:53.185Z,99701.52
2022-09-20T01:23:25.706Z,99700.45
2022-09-20T01:26:39.751Z,99699.28
2022-09-20T01:29:18.481Z,99699.05
2022-09-20T01:31:53.845Z,99699.67
2022-09-20T01:34:35.407Z,99697.46
2022-09-20T01:37:28.909Z,99700.77
2022-09-20T01:40:04.570Z,99701.67
2022-09-20T01:42:59.063Z,99702.34
2022-09-20T01:45:31.215Z,99704.70
2022-09-20T01:48:36.323Z,99705.98
2022-09-20T01:51:38.101Z,99707.23
2022-09-20T01:55:06.205Z,99710.73
2022-09-20T01:58:13.524Z,99712.45
2022-09-20T02:01:04.424Z,99712.30
2022-09-20T02:03:36.742Z,99712.17
2022-09-20T02:06:57.458Z,99711.91
2022-09-20T02:09:45.391Z,99715.84
2022-09-20T02:12:23.449Z,99716.65
2022-09-20T02:15:29.965Z,99717.55
2022-09-20T02:18:31.323Z,99719.23
2022-09-20T02:21:19.576Z,99727.08
2022-09-20T02:24:26.531Z,99727.52
2022-09-20T02:27:23.169Z,99729.63
2022-09-20T02:30:23.980Z,99731.77
2022-09-20T02:33:45.062Z,99732.83
2022-09-20T02:36:59.593Z,99734.98
2022-09-20T02:39:43.517Z,99739.30
2022-09-20T02:42:47.578Z,99738.02
2022-09-20T02:46:02.807Z,99742.14
2022-09-20T02:48:46.021Z,99745.09
2022-09-20T02:51:24.983Z,99745.23
2022-09-20T02:54:05.452Z,99746.30
2022-09-20T02:57:17.541Z,99744.68
2022-09-20T03:00:10.043Z,99746.61
2022-09-20T03:03:14.652Z,99751.28
2022-09-20T03:06:04.708Z,99759.27
2022-09-20T03:09:17.946Z,99761.89
2022-09-20T03:12:49.821Z,99760.38
2022-09-20T03:15:37.354Z,99761.05
2022-09-20T03:19:02.262Z,99759.77
2022-09-20T03:21:53.026Z,99758.45
2022-09-20T03:24:41.728Z,99759.59
2022-09-20T03:27:48.590Z,99761.23
2022-09-20T03:30:53.216Z,99764.63
2022-09-20T03:33:59.692Z,99764.24
2022-09-20T03:36:50.923Z,99763.14
2022-09-20T03:39:44.892Z,99762.50
2022-09-20T03:42:30.085Z,99762.67
2022-09-20T03:45:26.885Z,99765.00
2022-09-20T03:47:56.335Z,99773.42
2022-09-20T03:50:28.596Z,99769.23
2022-09-20T03:53:16.327Z,99765.29
2022-09-20T03:56:07.748Z,99766.54
2022-09-20T03:59:22.093Z,99767.77
2022-09-20T04:02:07.909Z,99768.41
2022-09-20T04:04:56.343Z,99767.88
2022-09-20T04:07:25.043Z,99766.58
2022-09-20T04:10:32.063Z,99771.00
2022-09-20T04:14:01.642Z,99769.91
2022-09-20T04:16:31.049Z,99771.35
2022-09-20T04:19:32.899Z,99779.66
2022-09-20T04:22:16.456Z,99787.53
2022-09-20T04:25:03.000Z,99790.48
2022-09-20T04:27:44.510Z,99794.74
2022-09-20T04:30:21.690Z,99794.39
2022-09-20T04:33:15.512Z,99795.79
2022-09-20T04:36:35.995Z,99800.52
2022-09-20T04:39:14.693Z,99796.34
2022-09-20T04:42:11.023Z,99803.27
2022-09-20T04:45:33.336Z,99815.98
2022-09-20T04:48:54.916Z,99820.11
2022-09-20T04:51:41.826Z,99828.05
2022-09-20T04:54:30.068Z,99829.95
2022-09-20T04:57:33.188Z,99824.83
2022-09-20T05:00:14.569Z,99818.09
2022-09-20T05:03:04.063Z,99824.11
2022-09-20T05:05:41.305Z,99827.14
2022-09-20T05:09:05.695Z,99829.28
2022-09-20T05:12:12.515Z,99838.94
2022-09-20T05:15:01.178Z,99843.65
2022-09-20T05:17:48.597Z,99841.70
2022-09-20T05:20:47.426Z,99839.55
2022-09-20T05:23:32.680Z,99851.90
2022-09-20T05:26:10.308Z,99853.37
2022-09-20T05:28:50.470Z,99849.89
2022-09-20T05:31:44.612Z,99848.86
2022-09-20T05:34:18.755Z,99846.27
2022-09-20T05:37:08.305Z,99851.49
2022-09-20T05:40:07.716Z,99851.45
2022-09-20T05:45:51.104Z,99859.21
2022-09-20T05:48:21.062Z,99861.11
2022-09-20T05:54:55.376Z,99865.58
2022-09-20T05:58:06.654Z,99866.52
2022-09-20T06:00:48.866Z,99868.66
2022-09-20T06:03:37.658Z,99867.74
2022-09-20T06:06:16.170Z,99869.13
2022-09-20T06:09:13.088Z,99870.41
2022-09-20T06:12:04.341Z,99873.70
2022-09-20T06:15:07.127Z,99872.19
2022-09-20T06:17:50.328Z,99870.22
2022-09-20T06:20:33.810Z,99867.67
2022-09-20T06:23:06.302Z,99877.16
2022-09-20T06:25:45.982Z,99874.45
2022-09-20T06:28:19.347Z,99873.70
2022-09-20T06:30:53.911Z,99877.17
2022-09-20T06:34:03.684Z,99874.70
2022-09-20T06:36:56.803Z,99877.81
2022-09-20T06:40:00.174Z,99876.59
2022-09-20T06:42:30.302Z,99874.95
2022-09-20T06:44:59.636Z,99878.83
2022-09-20T06:47:29.665Z,99880.98
2022-09-20T06:50:00.396Z,99881.88
2022-09-20T06:52:29.948Z,99888.12
2022-09-20T06:54:59.105Z,99890.15
2022-09-20T06:57:36.346Z,99887.95
2022-09-20T07:00:11.687Z,99891.63
2022-09-20T07:02:40.491Z,99898.85
2022-09-20T07:05:22.723Z,99904.40
2022-09-20T07:07:58.042Z,99906.87
2022-09-20T07:10:28.383Z,99915.27
2022-09-20T07:13:02.307Z,99915.87
2022-09-20T07:15:33.632Z,99916.25
2022-09-20T07:18:16.313Z,99916.65
2022-09-20T07:21:01.402Z,99923.86
2022-09-20T07:23:31.742Z,99927.35
2022-09-20T07:26:01.465Z,99927.90
2022-09-20T07:28:33.007Z,99932.74
2022-09-20T07:31:02.126Z,99936.36
2022-09-20T07:33:32.086Z,99936.80
2022-09-20T07:36:02.086Z,99938.52
2022-09-20T07:38:31.274Z,99942.90
2022-09-20T07:41:02.664Z,99943.20
2022-09-20T07:43:32.691Z,99943.70
2022-09-20T07:46:02.139Z,99946.70
2022-09-20T07:48:34.571Z,99945.85
2022-09-20T07:51:17.684Z,99945.62
2022-09-20T07:53:46.699Z,99949.91
2022-09-20T07:56:29.407Z,99952.67
2022-09-20T07:58:58.754Z,99954.61
2022-09-20T08:01:42.483Z,99955.48
2022-09-20T08:04:11.981Z,99958.94
2022-09-20T08:06:44.459Z,99960.02
2022-09-20T08:09:14.551Z,99960.45
2022-09-20T08:11:58.387Z,99962.88
2022-09-20T08:14:27.390Z,99962.59
2022-09-20T08:17:02.249Z,99964.80
2022-09-20T08:19:31.296Z,99966.69
2022-09-20T08:22:14.177Z,99960.75
2022-09-20T08:24:44.859Z,99959.77
2022-09-20T08:27:27.159Z,99967.05
2022-09-20T08:30:10.647Z,99965.64
2022-09-20T08:32:54.236Z,99966.11
2022-09-20T08:35:38.530Z,99963.98
2022-09-20T08:41:19.329Z,99966.58
2022-09-20T08:43:56.425Z,99965.70
2022-09-20T08:46:50.385Z,99969.20
2022-09-20T08:49:30.313Z,99966.71
2022-09-20T08:52:19.834Z,99976.25
2022-09-20T08:55:07.442Z,99971.86
2022-09-20T08:57:54.449Z,99974.98
2022-09-20T09:00:32.768Z,99977.59
2022-09-20T09:03:07.189Z,99970.27
2022-09-20T09:05:55.511Z,99972.08
2022-09-20T09:08:29.210Z,99973.30
2022-09-20T09:11:09.068Z,99973.49
2022-09-20T09:14:02.224Z,99974.16
2022-09-20T09:16:35.780Z,99974.92
2022-09-20T09:19:44.113Z,99972.60
2022-09-20T09:22:37.794Z,99969.73
2022-09-20T09:25:22.279Z,99970.31
2022-09-20T09:27:59.631Z,99970.33
2022-09-20T09:30:32.197Z,99960.04
2022-09-20T09:33:20.397Z,99964.73
2022-09-20T09:36:15.430Z,99964.46
2022-09-20T09:38:46.425Z,99963.55
2022-09-20T09:41:26.540Z,99963.34
2022-09-20T09:44:21.385Z,99958.13
2022-09-20T09:47:04.187Z,99961.41
2022-09-20T09:50:09.819Z,99959.72
2022-09-20T09:52:39.658Z,99971.92
2022-09-20T09:55:24.112Z,99969.54
2022-09-20T09:58:13.394Z,99968.05
2022-09-20T10:00:59.896Z,99968.10
2022-09-20T10:03:49.044Z,99967.17
2022-09-20T10:06:18.822Z,99966.35
2022-09-20T10:09:39.541Z,99972.66
2022-09-20T10:12:19.890Z,99975.70
2022-09-20T10:15:19.453Z,99972.65
2022-09-20T10:17:58.158Z,99976.56
2022-09-20T10:20:43.586Z,99977.30
2022-09-20T10:24:02.128Z,99976.25
2022-09-20T10:26:59.865Z,99975.67
2022-09-20T10:29:53.394Z,99973.60
2022-09-20T10:32:50.487Z,99974.90
2022-09-20T10:36:14.496Z,99981.33
2022-09-20T10:38:50.006Z,99980.43
2022-09-20T10:42:16.269Z,99981.98
2022-09-20T10:44:58.243Z,99980.98
2022-09-20T10:47:34.707Z,99981.63
2022-09-20T10:50:18.761Z,99985.23
2022-09-20T10:53:26.481Z,99981.18
2022-09-20T10:56:32.001Z,99984.58
2022-09-20T10:59:19.300Z,99982.59
2022-09-20T11:01:58.964Z,99981.69
2022-09-20T11:04:46.625Z,99980.17
2022-09-20T11:07:22.694Z,99991.94
2022-09-20T11:09:56.567Z,99994.73
2022-09-20T11:12:51.686Z,99997.46
2022-09-20T11:15:41.940Z,99986.71
2022-09-20T11:18:23.814Z,99989.59
2022-09-20T11:21:20.960Z,99990.95
2022-09-20T11:24:03.077Z,99986.23
2022-09-20T11:26:38.237Z,99988.60
2022-09-20T11:29:19.936Z,99986.48
2022-09-20T11:31:54.914Z,99982.55
2022-09-20T11:34:32.512Z,99990.42
2022-09-20T11:37:03.546Z,99986.05
2022-09-20T11:40:01.596Z,99989.52
2022-09-20T11:42:37.226Z,99991.11
2022-09-20T11:45:06.467Z,99989.85
2022-09-20T11:47:55.273Z,99982.11
2022-09-20T11:51:16.055Z,99989.17
2022-09-20T11:54:07.284Z,99990.20
2022-09-20T11:56:36.327Z,99996.36
2022-09-20T11:59:28.786Z,99997.84
2022-09-20T12:02:00.943Z,99994.14
2022-09-20T12:04:35.185Z,100000.23
2022-09-20T12:07:26.696Z,100003.17
2022-09-20T12:10:05.727Z,100004.02
2022-09-20T12:12:44.448Z,100006.16
2022-09-20T12:15:25.245Z,100014.63
2022-09-20T12:17:53.998Z,100012.73
2022-09-20T12:23:58.102Z,100024.96
2022-09-20T12:26:40.477Z,100022.39
2022-09-20T12:29:29.773Z,100016.02
2022-09-20T12:32:01.862Z,100011.29
2022-09-20T12:34:36.994Z,100010.48
2022-09-20T12:37:05.539Z,100007.58
2022-09-20T12:39:39.193Z,100012.02
2022-09-20T12:42:10.778Z,100019.98
2022-09-20T12:45:18.371Z,100015.20
2022-09-20T12:48:00.828Z,100021.86
2022-09-20T12:50:48.320Z,100022.11
2022-09-20T12:53:17.330Z,100032.89
2022-09-20T12:55:55.251Z,100047.75
2022-09-20T12:58:32.879Z,100051.80
2022-09-20T13:01:04.997Z,100060.23
2022-09-20T13:03:48.536Z,100062.67
2022-09-20T13:06:20.187Z,100063.95
2022-09-20T13:09:09.708Z,100063.38
2022-09-20T13:11:57.280Z,100068.83
2022-09-20T13:14:32.470Z,100072.09
2022-09-20T13:17:14.948Z,100071.16
2022-09-20T13:19:50.263Z,100071.48
2022-09-20T13:22:43.657Z,100073.28
2022-09-20T13:25:15.996Z,100071.48
2022-09-20T13:28:04.345Z,100075.41
2022-09-20T13:30:33.680Z,100078.88
2022-09-20T13:33:25.765Z,100079.75
2022-09-20T13:35:58.931Z,100081.20
2022-09-20T13:38:32.210Z,100079.02
2022-09-20T13:41:08.364Z,100082.34
2022-09-20T13:43:52.347Z,100083.05
2022-09-20T13:46:32.267Z,100081.95
2022-09-20T13:49:23.894Z,100082.09
2022-09-20T13:51:52.713Z,100080.93
2022-09-20T13:54:33.056Z,100079.98
2022-09-20T13:57:23.424Z,100083.21
2022-09-20T13:59:53.164Z,100084.01
2022-09-20T14:02:31.098Z,100082.12
2022-09-20T14:05:02.229Z,100085.77
2022-09-20T14:07:32.486Z,100088.13
2022-09-20T14:10:01.540Z,100088.89
2022-09-20T14:12:30.741Z,100094.85
2022-09-20T14:15:16.328Z,100099.00
2022-09-20T14:17:45.917Z,100094.02
2022-09-20T14:20:17.492Z,100099.69
2022-09-20T14:23:00.891Z,100096.92
2022-09-20T14:25:29.878Z,100095.40
2022-09-20T14:28:19.256Z,100095.61
2022-09-20T14:30:48.855Z,100091.96
2022-09-20T14:33:21.488Z,100086.84
2022-09-20T14:35:52.260Z,100083.09
2022-09-20T14:38:26.737Z,100082.68
2022-09-20T14:41:04.449Z,100080.63
2022-09-20T14:43:35.808Z,100083.89
2022-09-20T14:46:18.619Z,100086.39
2022-09-20T14:48:47.879Z,100096.96
2022-09-20T14:51:30.386Z,100096.20
2022-09-20T14:54:05.281Z,100095.87
2022-09-20T14:56:37.447Z,100096.61
2022-09-20T14:59:14.086Z,100105.11
2022-09-20T15:01:47.228Z,100100.43
2022-09-20T15:04:33.081Z,100107.64
2022-09-20T15:07:08.568Z,100106.67
2022-09-20T15:09:37.826Z,100105.17
2022-09-20T15:12:14.384Z,100107.63
2022-09-20T15:14:44.944Z,100107.11
2022-09-20T15:17:19.794Z,100107.18
2022-09-20T15:19:50.557Z,100103.33
2022-09-20T15:22:19.371Z,100109.66
2022-09-20T15:24:48.485Z,100108.06
2022-09-20T15:27:31.461Z,100114.86
2022-09-20T15:30:00.608Z,100113.77
2022-09-20T15:32:29.705Z,100115.73
2022-09-20T15:34:59.034Z,100108.05
2022-09-20T15:37:27.980Z,100109.88
2022-09-20T15:39:57.232Z,100113.54
2022-09-20T15:42:26.125Z,100120.48
2022-09-20T15:45:10.546Z,100121.11
2022-09-20T15:47:40.370Z,100127.16
2022-09-20T15:50:10.066Z,100125.48
2022-09-20T15:52:42.168Z,100131.27
2022-09-20T15:55:12.470Z,100133.75
2022-09-20T15:57:48.313Z,100135.73
2022-09-20T16:00:22.556Z,100140.51
2022-09-20T16:02:51.630Z,100145.89
2022-09-20T16:05:34.033Z,100153.21
2022-09-20T16:08:03.236Z,100153.73
2022-09-20T16:10:33.080Z,100158.42
2022-09-20T16:13:01.672Z,100159.33
2022-09-20T16:15:30.871Z,100162.27
2022-09-20T16:18:18.352Z,100166.88
2022-09-20T16:20:47.215Z,100166.32
2022-09-20T16:23:29.860Z,100164.60
2022-09-20T16:25:58.728Z,100168.36
2022-09-20T16:28:28.531Z,100176.27
2022-09-20T16:30:58.501Z,100175.95
2022-09-20T16:33:27.523Z,100183.79
2022-09-20T16:35:56.928Z,100189.77
2022-09-20T16:38:26.602Z,100191.02
2022-09-20T16:41:09.408Z,100198.07
2022-09-20T16:43:38.371Z,100199.60
2022-09-20T16:46:07.540Z,100201.57
2022-09-20T16:48:54.924Z,100201.77
2022-09-20T16:51:26.686Z,100206.29
2022-09-20T16:54:14.754Z,100211.00
2022-09-20T16:56:48.978Z,100213.42
2022-09-20T16:59:22.048Z,100219.89
2022-09-20T17:01:51.858Z,100217.71
2022-09-20T17:04:21.715Z,100225.09
2022-09-20T17:07:04.405Z,100226.73
2022-09-20T17:09:36.170Z,100228.59
2022-09-20T17:12:12.618Z,100232.83
2022-09-20T17:14:49.584Z,100233.86
2022-09-20T17:17:27.116Z,100241.83
2022-09-20T17:20:07.145Z,100244.45
2022-09-20T17:22:44.206Z,100243.65
2022-09-20T17:25:19.655Z,100246.50
2022-09-20T17:27:55.295Z,100249.40
2022-09-20T17:30:33.451Z,100247.27
2022-09-20T17:37:01.865Z,100256.64
2022-09-20T17:39:30.784Z,100257.02
2022-09-20T17:41:59.788Z,100258.83
2022-09-20T17:44:42.385Z,100262.81
2022-09-20T17:47:12.413Z,100261.24
2022-09-20T17:49:41.093Z,100258.55
2022-09-20T17:52:11.374Z,100264.52
2022-09-20T17:54:40.487Z,100265.02
2022-09-20T17:57:08.916Z,100265.05
2022-09-20T17:59:37.478Z,100265.11
2022-09-20T18:02:20.117Z,100272.58
2022-09-20T18:05:17.186Z,100266.54
2022-09-20T18:07:52.292Z,100265.34
2022-09-20T18:10:21.574Z,100271.14
2022-09-20T18:12:51.603Z,100273.59
2022-09-20T18:15:20.903Z,100272.05
2022-09-20T18:17:54.416Z,100277.99
2022-09-20T18:20:23.550Z,100279.21
2022-09-20T18:22:52.978Z,100280.59
2022-09-20T18:25:24.556Z,100280.98
2022-09-20T18:27:54.306Z,100285.33
2022-09-20T18:30:23.120Z,100281.75
2022-09-20T18:32:52.872Z,100285.96
2022-09-20T18:35:21.530Z,100291.67
2022-09-20T18:37:50.160Z,100296.04
2022-09-20T18:40:18.913Z,100300.34
2022-09-20T18:43:00.204Z,100299.34
2022-09-20T18:45:32.563Z,100298.23
2022-09-20T18:48:02.089Z,100300.40
2022-09-20T18:50:30.811Z,100297.02
2022-09-20T18:52:59.657Z,100297.99
2022-09-20T18:55:29.276Z,100302.90
2022-09-20T18:58:01.529Z,100301.11
2022-09-20T19:00:31.327Z,100305.68
2022-09-20T19:03:12.096Z,100305.10
2022-09-20T19:05:53.138Z,100305.45
2022-09-20T19:08:38.355Z,100312.89
2022-09-20T19:11:16.855Z,100312.63
2022-09-20T19:14:01.079Z,100315.45
2022-09-20T19:16:35.404Z,100320.40
2022-09-20T19:19:04.068Z,100320.30
2022-09-20T19:21:46.300Z,100322.00
2022-09-20T19:24:47.643Z,100326.99
2022-09-20T19:27:16.611Z,100330.07
2022-09-20T19:29:49.226Z,100333.70
2022-09-20T19:32:21.985Z,100333.60
2022-09-20T19:34:52.420Z,100338.17
2022-09-20T19:37:58.999Z,100338.86
2022-09-20T19:40:46.747Z,100339.80
2022-09-20T19:43:53.435Z,100338.83
2022-09-20T19:47:11.168Z,100345.80
2022-09-20T19:50:04.004Z,100351.31
2022-09-20T19:52:33.516Z,100353.71
2022-09-20T19:55:03.088Z,100357.55
2022-09-20T19:57:47.664Z,100363.60
2022-09-20T20:00:19.588Z,100362.21
2022-09-20T20:02:49.852Z,100363.08
2022-09-20T20:05:21.229Z,100365.38
2022-09-20T20:07:59.073Z,100365.80
2022-09-20T20:10:54.989Z,100363.24
2022-09-20T20:13:56.727Z,100366.41
2022-09-20T20:16:38.640Z,100368.16
2022-09-20T20:19:16.910Z,100376.36
2022-09-20T20:22:23.393Z,100373.73
2022-09-20T20:25:18.211Z,100378.61
2022-09-20T20:27:47.806Z,100378.21
2022-09-20T20:30:17.925Z,100377.52
2022-09-20T20:32:48.952Z,100376.78
2022-09-20T20:35:20.179Z,100378.90
2022-09-20T20:37:50.392Z,100379.90
2022-09-20T20:40:20.015Z,100384.52
2022-09-20T20:43:02.730Z,100387.52
2022-09-20T20:45:51.395Z,100382.47
2022-09-20T20:48:20.624Z,100384.65
2022-09-20T20:51:12.214Z,100386.89
2022-09-20T20:53:47.374Z,100387.58
2022-09-20T20:56:19.577Z,100386.48
2022-09-20T20:58:49.618Z,100387.17
2022-09-20T21:01:21.649Z,100385.13
2022-09-20T21:03:53.472Z,100389.48
2022-09-20T21:06:25.331Z,100393.23
2022-09-20T21:08:54.355Z,100397.14
2022-09-20T21:11:33.330Z,100396.86
2022-09-20T21:14:07.080Z,100396.55
2022-09-20T21:16:38.781Z,100398.59
2022-09-20T21:19:10.236Z,100397.20
2022-09-20T21:21:42.331Z,100398.38
2022-09-20T21:24:24.618Z,100401.41
2022-09-20T21:26:54.117Z,100399.14
2022-09-20T21:29:23.097Z,100398.52
2022-09-20T21:31:52.141Z,100400.80
2022-09-20T21:34:21.101Z,100401.32
2022-09-20T21:37:03.475Z,100403.14
2022-09-20T21:39:32.684Z,100401.98
2022-09-20T21:42:01.700Z,100404.36
2022-09-20T21:44:30.871Z,100402.67
2022-09-20T21:46:59.662Z,100408.84
2022-09-20T21:49:29.094Z,100411.67
2022-09-20T21:51:57.747Z,100411.05
2022-09-20T21:54:40.914Z,100412.45
2022-09-20T21:57:14.148Z,100413.20
2022-09-20T21:59:43.536Z,100413.30
2022-09-20T22:02:12.722Z,100416.11
2022-09-20T22:04:41.462Z,100416.67
2022-09-20T22:07:10.335Z,100420.52
2022-09-20T22:09:40.608Z,100420.73
2022-09-20T22:12:09.778Z,100422.68
2022-09-20T22:14:40.563Z,100421.54
2022-09-20T22:17:10.183Z,100422.69
2022-09-20T22:19:40.673Z,100420.14
2022-09-20T22:22:09.866Z,100420.27
2022-09-20T22:24:38.790Z,100424.75
2022-09-20T22:27:07.467Z,100422.84
2022-09-20T22:29:36.109Z,100429.09
2022-09-20T22:32:04.894Z,100429.54
2022-09-20T22:34:33.685Z,100427.30
2022-09-20T22:37:18.085Z,100427.81
2022-09-20T22:39:46.748Z,100425.32
2022-09-20T22:42:15.646Z,100424.14
2022-09-20T22:44:44.890Z,100422.92
2022-09-20T22:47:13.734Z,100422.54
2022-09-20T22:49:42.518Z,100422.36
2022-09-20T22:52:11.293Z,100428.27
2022-09-20T22:54:40.208Z,100426.15
2022-09-20T22:57:08.838Z,100434.48
2022-09-20T22:59:51.429Z,100432.82
2022-09-20T23:02:20.201Z,100427.23
2022-09-20T23:04:49.602Z,100432.92
2022-09-20T23:07:32.215Z,100435.73
2022-09-20T23:10:00.855Z,100429.29
2022-09-20T23:12:30.413Z,100433.10
2022-09-20T23:14:59.718Z,100431.63
2022-09-20T23:17:29.215Z,100433.60
2022-09-20T23:19:58.519Z,100430.08
2022-09-20T23:22:40.781Z,100431.55
2022-09-20T23:25:10.425Z,100431.23
2022-09-20T23:27:39.752Z,100430.23
2022-09-20T23:30:08.980Z,100439.79
2022-09-20T23:32:38.555Z,100436.67
2022-09-20T23:35:21.066Z,100441.39
2022-09-20T23:37:50.169Z,100441.23
2022-09-20T23:40:18.928Z,100443.65
2022-09-20T23:42:47.834Z,100447.20
2022-09-20T23:45:30.698Z,100446.05
2022-09-20T23:47:59.473Z,100447.42
2022-09-20T23:50:28.105Z,100448.30
2022-09-20T23:52:56.965Z,100447.27
2022-09-20T23:55:26.129Z,100446.55
2022-09-20T23:57:57.718Z,100447.02
